createdAt,value
2019-01-25T00:00:02.773Z,-3.8
2019-01-25T00:01:02.829Z,-3.8
2019-01-25T00:02:03.553Z,-3.8
2019-01-25T00:03:10.667Z,-3.8
2019-01-25T00:04:03.079Z,-3.8
2019-01-25T00:05:03.456Z,-3.8
2019-01-25T00:06:03.668Z,-3.7
2019-01-25T00:07:03.138Z,-3.7
2019-01-25T00:08:02.412Z,-3.7
2019-01-25T00:09:02.306Z,-3.7
2019-01-25T00:10:03.700Z,-3.7
2019-01-25T00:11:02.911Z,-3.7
2019-01-25T00:12:03.177Z,-3.6
2019-01-25T00:13:03.167Z,-3.6
2019-01-25T00:14:03.468Z,-3.6
2019-01-25T00:15:02.845Z,-3.6
2019-01-25T00:16:03.079Z,-3.6
2019-01-25T00:17:03.084Z,-3.6
2019-01-25T00:18:03.179Z,-3.6
2019-01-25T00:19:03.028Z,-3.6
2019-01-25T00:20:04.016Z,-3.6
2019-01-25T00:21:03.124Z,-3.6
2019-01-25T00:22:03.673Z,-3.6
2019-01-25T00:23:03.078Z,-3.6
2019-01-25T00:24:07.367Z,-3.6
2019-01-25T00:25:03.803Z,-3.6
2019-01-25T00:26:02.914Z,-3.6
2019-01-25T00:27:03.036Z,-3.6
2019-01-25T00:28:02.994Z,-3.6
2019-01-25T00:29:02.944Z,-3.5
2019-01-25T00:30:02.829Z,-3.6
2019-01-25T00:31:03.166Z,-3.6
2019-01-25T00:32:03.381Z,-3.6
2019-01-25T00:33:03.605Z,-3.6
2019-01-25T00:34:03.033Z,-3.6
2019-01-25T00:35:02.861Z,-3.6
2019-01-25T00:36:02.821Z,-3.6
2019-01-25T00:37:02.486Z,-3.6
2019-01-25T00:38:03.098Z,-3.6
2019-01-25T00:39:03.529Z,-3.6
2019-01-25T00:40:06.670Z,-3.6
2019-01-25T00:41:03.814Z,-3.6
2019-01-25T00:42:03.554Z,-3.6
2019-01-25T00:43:03.816Z,-3.6
2019-01-25T00:44:03.040Z,-3.6
2019-01-25T00:45:03.036Z,-3.6
2019-01-25T00:46:03.048Z,-3.6
2019-01-25T00:47:03.408Z,-3.6
2019-01-25T00:48:02.347Z,-3.4
2019-01-25T00:49:03.221Z,-3.5
2019-01-25T00:50:03.712Z,-3.6
2019-01-25T00:51:02.959Z,-3.6
2019-01-25T00:52:03.290Z,-3.6
2019-01-25T00:53:02.811Z,-3.6
2019-01-25T00:54:03.772Z,-3.6
2019-01-25T00:55:02.719Z,-3.6
2019-01-25T00:56:03.073Z,-3.5
2019-01-25T00:57:03.098Z,-3.6
2019-01-25T00:58:03.098Z,-3.6
2019-01-25T00:59:02.909Z,-3.6
2019-01-25T01:00:03.192Z,-3.6
2019-01-25T01:01:02.915Z,-3.6
2019-01-25T01:02:02.846Z,-3.6
2019-01-25T01:03:03.498Z,-3.6
2019-01-25T01:04:02.967Z,-3.6
2019-01-25T01:05:03.012Z,-3.6
2019-01-25T01:06:03.383Z,-3.7
2019-01-25T01:07:03.713Z,-3.7
2019-01-25T01:08:02.738Z,-3.7
2019-01-25T01:09:03.770Z,-3.7
2019-01-25T01:10:03.595Z,-3.7
2019-01-25T01:11:03.138Z,-3.7
2019-01-25T01:12:02.809Z,-3.7
2019-01-25T01:13:03.433Z,-3.8
2019-01-25T01:14:03.398Z,-3.8
2019-01-25T01:15:03.374Z,-3.8
2019-01-25T01:16:03.649Z,-3.8
2019-01-25T01:17:03.737Z,-3.8
2019-01-25T01:18:03.178Z,-3.9
2019-01-25T01:19:02.921Z,-3.9
2019-01-25T01:20:03.620Z,-3.9
2019-01-25T01:21:03.639Z,-3.9
2019-01-25T01:22:03.541Z,-3.9
2019-01-25T01:23:02.760Z,-3.9
2019-01-25T01:24:03.748Z,-3.9
2019-01-25T01:25:02.910Z,-4
2019-01-25T01:26:03.041Z,-4
2019-01-25T01:27:02.942Z,-4.1
2019-01-25T01:28:03.168Z,-3.9
2019-01-25T01:29:03.409Z,-3.9
2019-01-25T01:30:02.850Z,-4
2019-01-25T01:31:03.431Z,-4
2019-01-25T01:32:03.367Z,-4
2019-01-25T01:33:02.932Z,-4
2019-01-25T01:34:03.786Z,-4
2019-01-25T01:35:02.907Z,-4
2019-01-25T01:36:02.900Z,-4
2019-01-25T01:37:02.870Z,-4.1
2019-01-25T01:38:03.226Z,-4.1
2019-01-25T01:39:03.602Z,-4.2
2019-01-25T01:40:03.811Z,-4.1
2019-01-25T01:41:03.451Z,-4.1
2019-01-25T01:42:03.246Z,-4.1
2019-01-25T01:43:03.249Z,-4.2
2019-01-25T01:44:03.225Z,-4.2
2019-01-25T01:45:03.436Z,-4.2
2019-01-25T01:46:03.676Z,-4.1
2019-01-25T01:47:03.473Z,-4.2
2019-01-25T01:48:03.426Z,-4.2
2019-01-25T01:49:02.805Z,-4.2
2019-01-25T01:50:03.027Z,-4.3
2019-01-25T01:51:02.643Z,-4.3
2019-01-25T01:52:02.700Z,-4.3
2019-01-25T01:53:03.001Z,-4.3
2019-01-25T01:54:03.486Z,-4.3
2019-01-25T01:55:02.382Z,-4.3
2019-01-25T01:56:03.272Z,-4.3
2019-01-25T01:57:03.422Z,-4.3
2019-01-25T01:58:02.752Z,-4.3
2019-01-25T01:59:03.491Z,-4.2
2019-01-25T02:00:02.951Z,-4.3
2019-01-25T02:01:03.706Z,-4.3
2019-01-25T02:02:02.955Z,-4.2
2019-01-25T02:03:03.106Z,-4.2
2019-01-25T02:04:03.197Z,-4.2
2019-01-25T02:05:03.130Z,-4.2
2019-01-25T02:06:03.384Z,-4.2
2019-01-25T02:07:03.650Z,-4.2
2019-01-25T02:08:02.783Z,-4.2
2019-01-25T02:09:03.390Z,-4.1
2019-01-25T02:10:03.436Z,-4.1
2019-01-25T02:11:02.990Z,-4.3
2019-01-25T02:12:03.288Z,-4.3
2019-01-25T02:13:03.781Z,-4.3
2019-01-25T02:14:03.079Z,-4.2
2019-01-25T02:15:02.994Z,-4.1
2019-01-25T02:16:03.285Z,-4.1
2019-01-25T02:17:03.073Z,-4.1
2019-01-25T02:18:03.044Z,-4.1
2019-01-25T02:19:02.981Z,-4.1
2019-01-25T02:20:03.331Z,-4.2
2019-01-25T02:21:03.475Z,-4.2
2019-01-25T02:22:02.962Z,-4.1
2019-01-25T02:23:03.255Z,-4.1
2019-01-25T02:24:03.509Z,-4.1
2019-01-25T02:25:02.939Z,-4.2
2019-01-25T02:26:03.237Z,-4.1
2019-01-25T02:27:03.505Z,-4.1
2019-01-25T02:28:02.884Z,-4.1
2019-01-25T02:29:02.587Z,-4.1
2019-01-25T02:30:03.100Z,-4.1
2019-01-25T02:31:03.298Z,-4.1
2019-01-25T02:32:03.726Z,-4.1
2019-01-25T02:33:01.685Z,-4.1
2019-01-25T02:34:02.763Z,-4.1
2019-01-25T02:35:03.195Z,-4.1
2019-01-25T02:36:03.085Z,-4.1
2019-01-25T02:37:03.452Z,-4.1
2019-01-25T02:38:03.222Z,-4.1
2019-01-25T02:39:03.026Z,-4.1
2019-01-25T02:40:03.815Z,-4.1
2019-01-25T02:41:03.481Z,-4.1
2019-01-25T02:42:03.670Z,-4.1
2019-01-25T02:43:03.580Z,-4.1
2019-01-25T02:44:02.858Z,-4.1
2019-01-25T02:45:03.148Z,-4.1
2019-01-25T02:46:03.556Z,-4.1
2019-01-25T02:47:03.001Z,-4.1
2019-01-25T02:48:03.090Z,-4.1
2019-01-25T02:49:03.628Z,-4.1
2019-01-25T02:50:03.368Z,-4
2019-01-25T02:51:02.966Z,-4.1
2019-01-25T02:52:03.528Z,-4.1
2019-01-25T02:53:04.319Z,-4.1
2019-01-25T02:54:03.120Z,-4
2019-01-25T02:55:03.272Z,-4
2019-01-25T02:56:03.056Z,-4
2019-01-25T02:57:03.304Z,-4.1
2019-01-25T02:58:02.857Z,-4.1
2019-01-25T02:59:03.171Z,-4.1
2019-01-25T03:00:02.732Z,-4
2019-01-25T03:01:03.631Z,-4
2019-01-25T03:02:02.662Z,-4
2019-01-25T03:03:03.275Z,-4
2019-01-25T03:04:03.347Z,-4
2019-01-25T03:05:03.533Z,-4
2019-01-25T03:06:02.774Z,-4
2019-01-25T03:07:03.122Z,-4
2019-01-25T03:08:02.453Z,-4
2019-01-25T03:09:01.891Z,-4
2019-01-25T03:10:03.336Z,-3.9
2019-01-25T03:11:02.868Z,-4
2019-01-25T03:12:02.925Z,-4
2019-01-25T03:13:03.731Z,-4
2019-01-25T03:14:03.418Z,-4
2019-01-25T03:15:03.616Z,-4.1
2019-01-25T03:16:03.046Z,-4.1
2019-01-25T03:17:02.289Z,-4.1
2019-01-25T03:18:02.937Z,-4
2019-01-25T03:19:03.484Z,-4
2019-01-25T03:20:02.917Z,-4
2019-01-25T03:21:05.231Z,-4
2019-01-25T03:22:03.259Z,-4.1
2019-01-25T03:23:02.855Z,-4.1
2019-01-25T03:24:02.713Z,-4.1
2019-01-25T03:25:03.623Z,-4.1
2019-01-25T03:26:03.260Z,-4.1
2019-01-25T03:27:03.386Z,-4
2019-01-25T03:28:02.942Z,-3.9
2019-01-25T03:29:03.103Z,-4
2019-01-25T03:30:03.455Z,-4
2019-01-25T03:31:02.735Z,-4
2019-01-25T03:32:02.938Z,-4.1
2019-01-25T03:33:02.614Z,-4
2019-01-25T03:34:03.132Z,-4.1
2019-01-25T03:35:03.066Z,-4.1
2019-01-25T03:36:03.568Z,-4.1
2019-01-25T03:37:02.888Z,-4.1
2019-01-25T03:38:03.436Z,-4.1
2019-01-25T03:39:03.515Z,-4.1
2019-01-25T03:40:03.388Z,-4.1
2019-01-25T03:41:02.863Z,-4.1
2019-01-25T03:42:03.074Z,-4
2019-01-25T03:43:03.002Z,-4.1
2019-01-25T03:44:02.814Z,-4.1
2019-01-25T03:45:03.169Z,-4.1
2019-01-25T03:46:03.551Z,-4
2019-01-25T03:47:02.787Z,-4
2019-01-25T03:48:03.642Z,-4
2019-01-25T03:49:03.579Z,-4
2019-01-25T03:50:02.865Z,-4
2019-01-25T03:51:03.695Z,-4.1
2019-01-25T03:52:03.399Z,-4.1
2019-01-25T03:53:03.484Z,-4.1
2019-01-25T03:54:03.090Z,-4.1
2019-01-25T03:55:02.862Z,-3.9
2019-01-25T03:56:03.363Z,-3.9
2019-01-25T03:57:04.728Z,-3.9
2019-01-25T03:58:03.530Z,-3.9
2019-01-25T03:59:03.137Z,-3.9
2019-01-25T04:00:03.242Z,-3.9
2019-01-25T04:01:03.013Z,-3.9
2019-01-25T04:02:03.208Z,-3.9
2019-01-25T04:03:03.701Z,-3.9
2019-01-25T04:04:03.022Z,-4
2019-01-25T04:05:02.882Z,-4
2019-01-25T04:06:02.707Z,-4
2019-01-25T04:07:02.760Z,-4
2019-01-25T04:08:02.770Z,-4
2019-01-25T04:09:02.368Z,-4
2019-01-25T04:10:02.988Z,-3.9
2019-01-25T04:11:04.301Z,-4
2019-01-25T04:12:03.457Z,-4
2019-01-25T04:13:03.003Z,-4
2019-01-25T04:14:03.588Z,-3.9
2019-01-25T04:15:03.491Z,-3.9
2019-01-25T04:16:02.924Z,-3.9
2019-01-25T04:17:02.909Z,-3.9
2019-01-25T04:18:03.774Z,-3.9
2019-01-25T04:19:03.382Z,-3.9
2019-01-25T04:20:02.452Z,-4
2019-01-25T04:21:03.609Z,-4
2019-01-25T04:22:02.891Z,-4.1
2019-01-25T04:23:03.565Z,-4.1
2019-01-25T04:24:03.071Z,-4.1
2019-01-25T04:25:03.614Z,-4.1
2019-01-25T04:26:03.659Z,-4.1
2019-01-25T04:27:03.308Z,-4.1
2019-01-25T04:28:03.028Z,-4.1
2019-01-25T04:29:02.908Z,-4
2019-01-25T04:30:03.297Z,-4.1
2019-01-25T04:31:02.949Z,-4.1
2019-01-25T04:32:03.053Z,-4.1
2019-01-25T04:33:02.860Z,-4.1
2019-01-25T04:34:03.228Z,-4.1
2019-01-25T04:35:02.714Z,-4.1
2019-01-25T04:36:03.396Z,-4.1
2019-01-25T04:37:03.232Z,-4.1
2019-01-25T04:38:02.993Z,-4.2
2019-01-25T04:39:03.586Z,-4.2
2019-01-25T04:40:03.003Z,-4.2
2019-01-25T04:41:02.647Z,-4.2
2019-01-25T04:42:03.070Z,-4.2
2019-01-25T04:43:03.749Z,-4.2
2019-01-25T04:44:02.728Z,-4.2
2019-01-25T04:45:02.994Z,-4.2
2019-01-25T04:46:03.540Z,-4.3
2019-01-25T04:47:03.280Z,-4.3
2019-01-25T04:48:02.886Z,-4.3
2019-01-25T04:49:03.286Z,-4.3
2019-01-25T04:50:02.836Z,-4.3
2019-01-25T04:51:03.456Z,-4.3
2019-01-25T04:52:03.143Z,-4.3
2019-01-25T04:53:03.409Z,-4.3
2019-01-25T04:54:03.192Z,-4.3
2019-01-25T04:55:03.239Z,-4.3
2019-01-25T04:56:02.821Z,-4.3
2019-01-25T04:57:03.220Z,-4.3
2019-01-25T04:58:02.970Z,-4.3
2019-01-25T04:59:02.929Z,-4.3
2019-01-25T05:00:03.886Z,-4.4
2019-01-25T05:01:02.823Z,-4.3
2019-01-25T05:02:03.453Z,-4.3
2019-01-25T05:03:02.752Z,-4.3
2019-01-25T05:04:03.259Z,-4.3
2019-01-25T05:05:03.219Z,-4.4
2019-01-25T05:06:02.399Z,-4.4
2019-01-25T05:07:03.520Z,-4.3
2019-01-25T05:08:03.286Z,-4.3
2019-01-25T05:09:03.158Z,-4.4
2019-01-25T05:10:03.569Z,-4.4
2019-01-25T05:11:02.964Z,-4.4
2019-01-25T05:12:03.163Z,-4.4
2019-01-25T05:13:03.139Z,-4.4
2019-01-25T05:14:03.194Z,-4.4
2019-01-25T05:15:03.634Z,-4.4
2019-01-25T05:16:02.822Z,-4.4
2019-01-25T05:17:02.825Z,-4.4
2019-01-25T05:18:03.690Z,-4.4
2019-01-25T05:19:03.638Z,-4.4
2019-01-25T05:20:03.090Z,-4.4
2019-01-25T05:21:03.139Z,-4.4
2019-01-25T05:22:03.126Z,-4.4
2019-01-25T05:23:03.016Z,-4.4
2019-01-25T05:24:03.592Z,-4.4
2019-01-25T05:25:02.876Z,-4.4
2019-01-25T05:26:03.583Z,-4.4
2019-01-25T05:27:03.167Z,-4.4
2019-01-25T05:28:03.563Z,-4.4
2019-01-25T05:29:03.692Z,-4.4
2019-01-25T05:30:03.034Z,-4.4
2019-01-25T05:31:01.978Z,-4.4
2019-01-25T05:32:03.668Z,-4.4
2019-01-25T05:33:03.623Z,-4.4
2019-01-25T05:34:03.298Z,-4.4
2019-01-25T05:35:03.540Z,-4.5
2019-01-25T05:36:03.472Z,-4.5
2019-01-25T05:37:03.385Z,-4.4
2019-01-25T05:38:03.446Z,-4.5
2019-01-25T05:39:03.131Z,-4.5
2019-01-25T05:40:03.627Z,-4.5
2019-01-25T05:41:03.504Z,-4.5
2019-01-25T05:42:02.553Z,-4.5
2019-01-25T05:43:03.167Z,-4.5
2019-01-25T05:44:03.001Z,-4.4
2019-01-25T05:45:03.743Z,-4.4
2019-01-25T05:46:03.436Z,-4.4
2019-01-25T05:47:03.055Z,-4.4
2019-01-25T05:48:03.672Z,-4.4
2019-01-25T05:49:03.722Z,-4.5
2019-01-25T05:50:03.616Z,-4.5
2019-01-25T05:51:03.134Z,-4.4
2019-01-25T05:52:03.153Z,-4.5
2019-01-25T05:53:03.060Z,-4.6
2019-01-25T05:54:02.794Z,-4.4
2019-01-25T05:55:03.253Z,-4.4
2019-01-25T05:56:03.595Z,-4.4
2019-01-25T05:57:02.952Z,-4.4
2019-01-25T05:58:02.741Z,-4.4
2019-01-25T05:59:03.267Z,-4.4
2019-01-25T06:00:03.356Z,-4.5
2019-01-25T06:01:02.470Z,-4.5
2019-01-25T06:02:02.845Z,-4.5
2019-01-25T06:03:02.074Z,-4.4
2019-01-25T06:04:03.508Z,-4.4
2019-01-25T06:05:02.949Z,-4.4
2019-01-25T06:06:02.892Z,-4.4
2019-01-25T06:07:03.037Z,-4.4
2019-01-25T06:08:03.295Z,-4.5
2019-01-25T06:09:03.635Z,-4.5
2019-01-25T06:10:03.707Z,-4.5
2019-01-25T06:11:03.556Z,-4.5
2019-01-25T06:12:03.251Z,-4.5
2019-01-25T06:13:03.177Z,-4.4
2019-01-25T06:14:02.886Z,-4.4
2019-01-25T06:15:03.200Z,-4.4
2019-01-25T06:16:02.754Z,-4.4
2019-01-25T06:17:03.345Z,-4.4
2019-01-25T06:18:03.486Z,-4.5
2019-01-25T06:19:03.153Z,-4.5
2019-01-25T06:20:03.199Z,-4.5
2019-01-25T06:21:03.097Z,-4.5
2019-01-25T06:22:02.562Z,-4.4
2019-01-25T06:23:03.639Z,-4.5
2019-01-25T06:24:03.628Z,-4.5
2019-01-25T06:25:03.405Z,-4.5
2019-01-25T06:26:03.579Z,-4.5
2019-01-25T06:27:02.996Z,-4.5
2019-01-25T06:28:02.886Z,-4.5
2019-01-25T06:29:02.969Z,-4.4
2019-01-25T06:30:02.302Z,-4.4
2019-01-25T06:31:02.990Z,-4.4
2019-01-25T06:32:01.873Z,-4.4
2019-01-25T06:33:03.057Z,-4.4
2019-01-25T06:34:02.800Z,-4.4
2019-01-25T06:35:03.411Z,-4.4
2019-01-25T06:36:03.053Z,-4.4
2019-01-25T06:37:03.763Z,-4.4
2019-01-25T06:38:03.098Z,-4.4
2019-01-25T06:39:03.074Z,-4.4
2019-01-25T06:40:03.287Z,-4.4
2019-01-25T06:41:03.622Z,-4.4
2019-01-25T06:42:03.150Z,-4.4
2019-01-25T06:43:03.144Z,-4.4
2019-01-25T06:44:03.231Z,-4.4
2019-01-25T06:45:03.611Z,-4.4
2019-01-25T06:46:03.573Z,-4.4
2019-01-25T06:47:03.362Z,-4.3
2019-01-25T06:48:02.980Z,-4.3
2019-01-25T06:49:03.546Z,-4.3
2019-01-25T06:50:03.449Z,-4.3
2019-01-25T06:51:02.784Z,-4.3
2019-01-25T06:52:03.540Z,-4.4
2019-01-25T06:53:02.793Z,-4.4
2019-01-25T06:54:02.190Z,-4.3
2019-01-25T06:55:02.963Z,-4.3
2019-01-25T06:56:03.511Z,-4.3
2019-01-25T06:57:03.097Z,-4.3
2019-01-25T06:58:03.202Z,-4.4
2019-01-25T06:59:02.874Z,-4.4
2019-01-25T07:00:03.087Z,-4.4
2019-01-25T07:01:02.714Z,-4.4
2019-01-25T07:02:03.245Z,-4.4
2019-01-25T07:03:02.712Z,-4.4
2019-01-25T07:04:03.531Z,-4.4
2019-01-25T07:05:03.066Z,-4.4
2019-01-25T07:06:03.655Z,-4.4
2019-01-25T07:07:03.700Z,-4.4
2019-01-25T07:08:03.231Z,-4.4
2019-01-25T07:09:02.964Z,-4.3
2019-01-25T07:10:03.444Z,-4.3
2019-01-25T07:11:03.966Z,-4.3
2019-01-25T07:12:03.097Z,-4.3
2019-01-25T07:13:03.250Z,-4.3
2019-01-25T07:14:02.411Z,-4.3
2019-01-25T07:15:02.898Z,-4.3
2019-01-25T07:16:01.981Z,-4.2
2019-01-25T07:17:02.713Z,-4.3
2019-01-25T07:18:03.526Z,-4.2
2019-01-25T07:19:03.191Z,-4.2
2019-01-25T07:20:03.706Z,-4.2
2019-01-25T07:21:02.965Z,-4.2
2019-01-25T07:22:03.559Z,-4.2
2019-01-25T07:23:02.834Z,-4.2
2019-01-25T07:24:02.982Z,-4.3
2019-01-25T07:25:03.077Z,-4.2
2019-01-25T07:26:04.089Z,-4.2
2019-01-25T07:27:02.980Z,-4.1
2019-01-25T07:28:02.794Z,-4.1
2019-01-25T07:29:02.780Z,-4.1
2019-01-25T07:30:03.059Z,-4.1
2019-01-25T07:31:03.753Z,-4.1
2019-01-25T07:32:03.524Z,-4.1
2019-01-25T07:33:02.793Z,-4.1
2019-01-25T07:34:03.453Z,-4.1
2019-01-25T07:35:03.477Z,-4.1
2019-01-25T07:36:03.028Z,-4
2019-01-25T07:37:03.582Z,-4.1
2019-01-25T07:38:03.072Z,-4.1
2019-01-25T07:39:02.997Z,-4.1
2019-01-25T07:40:02.952Z,-4.1
2019-01-25T07:41:03.641Z,-4
2019-01-25T07:42:03.652Z,-4
2019-01-25T07:43:02.729Z,-4
2019-01-25T07:44:01.873Z,-4.1
2019-01-25T07:45:03.961Z,-4.1
2019-01-25T07:46:02.851Z,-4
2019-01-25T07:47:02.136Z,-3.9
2019-01-25T07:48:03.670Z,-4
2019-01-25T07:49:03.169Z,-4
2019-01-25T07:50:03.739Z,-3.9
2019-01-25T07:51:03.163Z,-3.9
2019-01-25T07:52:03.187Z,-3.9
2019-01-25T07:53:03.281Z,-3.9
2019-01-25T07:54:02.834Z,-3.9
2019-01-25T07:55:03.059Z,-3.9
2019-01-25T07:56:03.781Z,-3.9
2019-01-25T07:57:02.811Z,-3.9
2019-01-25T07:58:02.962Z,-3.9
2019-01-25T07:59:03.476Z,-3.9
2019-01-25T08:00:03.323Z,-3.9
2019-01-25T08:01:03.078Z,-3.9
2019-01-25T08:02:02.843Z,-3.9
2019-01-25T08:03:03.539Z,-3.9
2019-01-25T08:04:02.904Z,-3.9
2019-01-25T08:05:03.595Z,-3.9
2019-01-25T08:06:03.037Z,-3.9
2019-01-25T08:07:02.770Z,-3.9
2019-01-25T08:08:02.750Z,-3.9
2019-01-25T08:09:03.636Z,-3.9
2019-01-25T08:10:04.110Z,-3.8
2019-01-25T08:11:03.290Z,-3.8
2019-01-25T08:12:08.474Z,-3.9
2019-01-25T08:13:01.815Z,-3.8
2019-01-25T08:14:02.873Z,-3.8
2019-01-25T08:15:03.509Z,-3.8
2019-01-25T08:16:02.973Z,-3.9
2019-01-25T08:17:03.825Z,-3.9
2019-01-25T08:18:03.253Z,-3.8
2019-01-25T08:19:03.066Z,-3.8
2019-01-25T08:20:03.004Z,-3.8
2019-01-25T08:21:02.644Z,-3.8
2019-01-25T08:22:03.237Z,-3.8
2019-01-25T08:23:02.847Z,-3.8
2019-01-25T08:24:02.806Z,-3.8
2019-01-25T08:25:03.254Z,-3.8
2019-01-25T08:26:03.332Z,-3.8
2019-01-25T08:27:03.227Z,-3.8
2019-01-25T08:28:03.666Z,-3.7
2019-01-25T08:29:03.035Z,-3.7
2019-01-25T08:30:03.280Z,-3.7
2019-01-25T08:31:03.083Z,-3.6
2019-01-25T08:32:03.609Z,-3.5
2019-01-25T08:33:03.073Z,-3.6
2019-01-25T08:34:02.510Z,-3.5
2019-01-25T08:35:02.632Z,-3.5
2019-01-25T08:36:03.577Z,-3.5
2019-01-25T08:37:03.668Z,-3.5
2019-01-25T08:38:02.018Z,-3.6
2019-01-25T08:39:03.693Z,-3.6
2019-01-25T08:40:02.718Z,-3.6
2019-01-25T08:41:01.907Z,-3.6
2019-01-25T08:42:03.247Z,-3.5
2019-01-25T08:43:03.647Z,-3.5
2019-01-25T08:44:03.665Z,-3.5
2019-01-25T08:45:03.763Z,-3.4
2019-01-25T08:46:03.367Z,-3.5
2019-01-25T08:47:03.257Z,-3.6
2019-01-25T08:48:03.231Z,-3.6
2019-01-25T08:49:03.152Z,-3.5
2019-01-25T08:50:03.659Z,-3.5
2019-01-25T08:51:03.919Z,-3.5
2019-01-25T08:52:03.434Z,-3.5
2019-01-25T08:53:03.118Z,-3.4
2019-01-25T08:54:03.337Z,-3.4
2019-01-25T08:55:03.482Z,-3.4
2019-01-25T08:56:03.128Z,-3.4
2019-01-25T08:57:03.138Z,-3.5
2019-01-25T08:58:02.957Z,-3.5
2019-01-25T08:59:03.035Z,-3.4
2019-01-25T09:00:03.384Z,-3.4
2019-01-25T09:01:03.111Z,-3.4
2019-01-25T09:02:03.629Z,-3.4
2019-01-25T09:03:03.410Z,-3.3
2019-01-25T09:04:02.090Z,-3.3
2019-01-25T09:05:02.919Z,-3.3
2019-01-25T09:06:03.912Z,-3.3
2019-01-25T09:07:03.061Z,-3.3
2019-01-25T09:08:03.751Z,-3.3
2019-01-25T09:09:03.076Z,-3.3
2019-01-25T09:10:03.831Z,-3.3
2019-01-25T09:11:03.093Z,-3.1
2019-01-25T09:12:03.550Z,-3.1
2019-01-25T09:13:03.588Z,-3
2019-01-25T09:14:03.376Z,-2.9
2019-01-25T09:15:02.638Z,-2.9
2019-01-25T09:16:03.379Z,-2.8
2019-01-25T09:17:03.556Z,-2.8
2019-01-25T09:18:02.911Z,-2.8
2019-01-25T09:19:02.785Z,-2.7
2019-01-25T09:20:03.662Z,-2.7
2019-01-25T09:21:02.642Z,-2.9
2019-01-25T09:22:03.436Z,-2.9
2019-01-25T09:23:03.054Z,-2.8
2019-01-25T09:24:03.426Z,-2.6
2019-01-25T09:25:03.077Z,-2.6
2019-01-25T09:26:02.361Z,-2.6
2019-01-25T09:27:02.765Z,-2.7
2019-01-25T09:28:01.861Z,-2.7
2019-01-25T09:29:03.020Z,-2.7
2019-01-25T09:30:03.502Z,-2.7
2019-01-25T09:31:03.026Z,-2.6
2019-01-25T09:32:03.274Z,-2.6
2019-01-25T09:33:03.781Z,-2.4
2019-01-25T09:34:03.297Z,-2.3
2019-01-25T09:35:03.463Z,-2.4
2019-01-25T09:36:02.840Z,-2.4
2019-01-25T09:37:01.866Z,-2.3
2019-01-25T09:38:02.987Z,-2.3
2019-01-25T09:39:02.948Z,-2.3
2019-01-25T09:40:03.055Z,-2.4
2019-01-25T09:41:02.816Z,-2.3
2019-01-25T09:42:02.567Z,-2.4
2019-01-25T09:43:03.636Z,-2.4
2019-01-25T09:44:03.679Z,-2.2
2019-01-25T09:45:03.037Z,-2.2
2019-01-25T09:46:03.128Z,-2.1
2019-01-25T09:47:02.834Z,-1.9
2019-01-25T09:48:03.551Z,-1.9
2019-01-25T09:49:03.346Z,-1.9
2019-01-25T09:50:03.217Z,-1.9
2019-01-25T09:51:02.776Z,-1.9
2019-01-25T09:52:03.047Z,-1.9
2019-01-25T09:53:02.843Z,-1.9
2019-01-25T09:54:03.753Z,-2
2019-01-25T09:55:03.186Z,-2
2019-01-25T09:56:03.483Z,-2
2019-01-25T09:57:03.176Z,-2
2019-01-25T09:58:03.321Z,-1.8
2019-01-25T09:59:03.074Z,-1.8
2019-01-25T10:00:02.950Z,-1.9
2019-01-25T10:01:02.692Z,-1.9
2019-01-25T10:02:01.973Z,-1.9
2019-01-25T10:03:03.687Z,-1.8
2019-01-25T10:04:02.577Z,-1.8
2019-01-25T10:05:03.708Z,-1.8
2019-01-25T10:06:03.529Z,-1.8
2019-01-25T10:07:02.760Z,-1.9
2019-01-25T10:08:02.840Z,-1.9
2019-01-25T10:09:03.090Z,-1.8
2019-01-25T10:10:03.335Z,-1.6
2019-01-25T10:11:02.848Z,-1.6
2019-01-25T10:12:03.258Z,-1.5
2019-01-25T10:13:02.882Z,-1.4
2019-01-25T10:14:03.585Z,-1.4
2019-01-25T10:15:03.367Z,-1.5
2019-01-25T10:16:03.249Z,-1.6
2019-01-25T10:17:03.826Z,-1.5
2019-01-25T10:18:03.813Z,-1.5
2019-01-25T10:19:03.720Z,-1.6
2019-01-25T10:20:03.037Z,-1.6
2019-01-25T10:21:03.119Z,-1.5
2019-01-25T10:22:02.712Z,-1.5
2019-01-25T10:23:02.762Z,-1.6
2019-01-25T10:24:03.660Z,-1.6
2019-01-25T10:25:03.705Z,-1.6
2019-01-25T10:26:02.415Z,-1.7
2019-01-25T10:27:03.308Z,-1.8
2019-01-25T10:28:02.851Z,-1.9
2019-01-25T10:29:04.127Z,-1.8
2019-01-25T10:30:02.918Z,-1.9
2019-01-25T10:31:02.643Z,-1.9
2019-01-25T10:32:03.587Z,-1.9
2019-01-25T10:33:03.067Z,-1.9
2019-01-25T10:34:02.092Z,-2
2019-01-25T10:35:03.096Z,-2
2019-01-25T10:36:03.258Z,-2
2019-01-25T10:37:03.508Z,-2
2019-01-25T10:38:05.026Z,-2
2019-01-25T10:39:03.054Z,-2.1
2019-01-25T10:40:02.987Z,-2.1
2019-01-25T10:41:02.911Z,-2.2
2019-01-25T10:42:03.435Z,-2.2
2019-01-25T10:43:02.742Z,-2.4
2019-01-25T10:44:03.398Z,-2.4
2019-01-25T10:45:04.913Z,-2.3
2019-01-25T10:46:03.611Z,-2.3
2019-01-25T10:47:02.814Z,-2.6
2019-01-25T10:48:03.320Z,-2.4
2019-01-25T10:49:02.992Z,-2.4
2019-01-25T10:50:03.151Z,-2.3
2019-01-25T10:51:02.816Z,-2.3
2019-01-25T10:52:02.854Z,-2.4
2019-01-25T10:53:03.433Z,-2.4
2019-01-25T10:54:03.484Z,-2.4
2019-01-25T10:55:02.374Z,-2.3
2019-01-25T10:56:03.661Z,-2.3
2019-01-25T10:57:03.370Z,-2.3
2019-01-25T10:58:03.688Z,-2.4
2019-01-25T10:59:03.133Z,-2.3
2019-01-25T11:00:03.688Z,-2.3
2019-01-25T11:01:02.895Z,-2.2
2019-01-25T11:02:03.118Z,-2.3
2019-01-25T11:03:03.620Z,-2.3
2019-01-25T11:04:03.583Z,-2.1
2019-01-25T11:05:03.115Z,-1.9
2019-01-25T11:06:03.206Z,-2
2019-01-25T11:07:03.534Z,-2
2019-01-25T11:08:02.739Z,-2.1
2019-01-25T11:09:03.709Z,-2.1
2019-01-25T11:10:03.923Z,-1.9
2019-01-25T11:11:03.621Z,-1.9
2019-01-25T11:12:03.384Z,-1.8
2019-01-25T11:13:03.086Z,-1.8
2019-01-25T11:14:03.435Z,-1.8
2019-01-25T11:15:03.118Z,-1.8
2019-01-25T11:16:03.523Z,-1.9
2019-01-25T11:17:03.639Z,-1.7
2019-01-25T11:18:03.252Z,-1.8
2019-01-25T11:19:03.014Z,-1.9
2019-01-25T11:20:03.783Z,-1.9
2019-01-25T11:21:03.353Z,-1.9
2019-01-25T11:22:02.857Z,-1.9
2019-01-25T11:23:02.095Z,-1.9
2019-01-25T11:24:08.087Z,-1.9
2019-01-25T11:25:01.877Z,-2
2019-01-25T11:26:03.491Z,-1.9
2019-01-25T11:27:03.646Z,-1.9
2019-01-25T11:28:02.971Z,-2
2019-01-25T11:29:03.301Z,-2
2019-01-25T11:30:03.278Z,-1.9
2019-01-25T11:31:03.698Z,-2.1
2019-01-25T11:32:03.295Z,-2.1
2019-01-25T11:33:03.395Z,-2.1
2019-01-25T11:34:02.873Z,-2
2019-01-25T11:35:03.754Z,-1.9
2019-01-25T11:36:03.563Z,-1.9
2019-01-25T11:37:03.155Z,-1.9
2019-01-25T11:38:03.315Z,-1.9
2019-01-25T11:39:02.766Z,-1.9
2019-01-25T11:40:03.701Z,-1.8
2019-01-25T11:41:03.341Z,-1.9
2019-01-25T11:42:03.247Z,-1.7
2019-01-25T11:43:09.359Z,-1.7
2019-01-25T11:44:03.621Z,-1.8
2019-01-25T11:45:03.315Z,-1.8
2019-01-25T11:46:02.982Z,-1.9
2019-01-25T11:47:02.983Z,-1.9
2019-01-25T11:48:02.913Z,-1.8
2019-01-25T11:49:02.766Z,-1.8
2019-01-25T11:50:03.104Z,-1.8
2019-01-25T11:51:03.309Z,-2
2019-01-25T11:52:03.331Z,-2
2019-01-25T11:53:03.461Z,-2
2019-01-25T11:54:03.643Z,-2
2019-01-25T11:55:04.124Z,-2.1
2019-01-25T11:56:02.876Z,-2.1
2019-01-25T11:57:03.010Z,-2.2
2019-01-25T11:58:03.103Z,-2.2
2019-01-25T11:59:03.703Z,-2.3
2019-01-25T12:00:02.990Z,-2.3
2019-01-25T12:01:02.272Z,-2.7
2019-01-25T12:02:02.367Z,-2.7
2019-01-25T12:03:03.046Z,-2.7
2019-01-25T12:04:03.705Z,-2.4
2019-01-25T12:05:02.790Z,-2.5
2019-01-25T12:06:03.296Z,-2.5
2019-01-25T12:07:02.821Z,-2.9
2019-01-25T12:08:03.410Z,-2.9
2019-01-25T12:09:03.186Z,-3.1
2019-01-25T12:10:03.190Z,-3.3
2019-01-25T12:11:02.722Z,-3.3
2019-01-25T12:12:03.560Z,-3.4
2019-01-25T12:13:03.411Z,-3.3
2019-01-25T12:14:03.351Z,-3.1
2019-01-25T12:15:03.152Z,-3
2019-01-25T12:16:03.042Z,-3.1
2019-01-25T12:17:03.380Z,-2.9
2019-01-25T12:18:02.878Z,-2.9
2019-01-25T12:19:02.781Z,-2.9
2019-01-25T12:20:03.672Z,-2.9
2019-01-25T12:21:02.993Z,-2.6
2019-01-25T12:22:02.914Z,-2.6
2019-01-25T12:23:03.093Z,-2.5
2019-01-25T12:24:03.637Z,-2.5
2019-01-25T12:25:03.285Z,-2.4
2019-01-25T12:26:02.749Z,-2.4
2019-01-25T12:27:03.377Z,-2.4
2019-01-25T12:28:05.691Z,-2.4
2019-01-25T12:29:01.846Z,-2.3
2019-01-25T12:30:01.826Z,-2.3
2019-01-25T12:31:02.940Z,-2.3
2019-01-25T12:32:03.281Z,-2.3
2019-01-25T12:33:02.680Z,-2.3
2019-01-25T12:34:03.843Z,-2.1
2019-01-25T12:35:07.653Z,-2.1
2019-01-25T12:36:03.000Z,-2.1
2019-01-25T12:37:04.997Z,-2
2019-01-25T12:38:02.968Z,-2.1
2019-01-25T12:39:03.184Z,-2
2019-01-25T12:40:03.329Z,-1.9
2019-01-25T12:41:02.631Z,-1.9
2019-01-25T12:42:02.852Z,-1.9
2019-01-25T12:43:03.480Z,-1.9
2019-01-25T12:44:03.561Z,-1.9
2019-01-25T12:45:03.441Z,-1.9
2019-01-25T12:46:03.231Z,-1.9
2019-01-25T12:47:02.080Z,-1.9
2019-01-25T12:48:03.059Z,-1.9
2019-01-25T12:49:02.760Z,-1.9
2019-01-25T12:50:03.100Z,-1.9
2019-01-25T12:51:02.716Z,-2
2019-01-25T12:52:08.627Z,-2
2019-01-25T12:53:02.863Z,-2
2019-01-25T12:54:03.412Z,-1.9
2019-01-25T12:55:03.204Z,-1.9
2019-01-25T12:56:02.985Z,-1.9
2019-01-25T12:57:02.849Z,-1.8
2019-01-25T12:58:02.877Z,-2
2019-01-25T12:59:03.505Z,-1.9
2019-01-25T13:00:02.666Z,-2
2019-01-25T13:01:03.151Z,-1.8
2019-01-25T13:02:03.074Z,-1.8
2019-01-25T13:03:02.970Z,-1.9
2019-01-25T13:04:03.447Z,-1.8
2019-01-25T13:05:03.579Z,-1.8
2019-01-25T13:06:03.089Z,-1.8
2019-01-25T13:07:03.450Z,-1.8
2019-01-25T13:08:03.079Z,-1.8
2019-01-25T13:09:02.974Z,-1.8
2019-01-25T13:10:03.460Z,-1.7
2019-01-25T13:11:01.944Z,-1.8
2019-01-25T13:12:01.915Z,-1.8
2019-01-25T13:13:02.620Z,-1.8
2019-01-25T13:14:02.929Z,-1.9
2019-01-25T13:15:04.067Z,-1.8
2019-01-25T13:16:03.271Z,-1.8
2019-01-25T13:17:03.851Z,-1.8
2019-01-25T13:18:03.798Z,-1.9
2019-01-25T13:19:02.963Z,-2.1
2019-01-25T13:20:03.331Z,-2.1
2019-01-25T13:21:03.690Z,-2.1
2019-01-25T13:22:02.853Z,-2.1
2019-01-25T13:23:03.363Z,-2.1
2019-01-25T13:24:03.014Z,-2.1